slypieguy's sites:

title views votes rating creation
?The Jihad's Next Target 5,853 147 (3.62)  2006-08-27
?Medieval tech support is NOT the answer.. 2,442 40 (3.88)  2006-08-28
?Some call it Ernesto... 639 21 (3.33)  2006-08-29
?test 312 10 (2.20)  2006-08-29
?lol, DUI 753 20 (2.75)  2006-08-31
?That's the law 537 13 (3.46)  2006-08-31
?Scientology is NOT the answer 710 28 (3.61)  2006-08-31
?It's HOT 862 31 (3.61)  2006-09-01
?Asian happy cat 4,083 54 (3.96)  2006-09-01
?Gravity cat is... stuck 1,701 42 (3.48)  2006-09-01
?omg breaking news 532 20 (2.90)  2006-09-01
?Remember old school fundamentals 1,104 26 (3.42)  2006-09-01
?Pluto will fight! v.3 547 18 (3.72)  2006-09-02
?GAYTMND soap dispenser 943 25 (3.28)  2006-09-02
?Howard Dean is... 7,136 65 (4.28)  2006-09-02
?System of a Down Paradox 873 28 (2.82)  2006-09-02
?You have one of those? (attempted loop) 4,171 105 (3.70)  2006-09-03
?Now you're bakin' me toasty 751 21 (3.48)  2006-09-03
?Damn Tokyo DoT 532 18 (3.00)  2006-09-03
?Tragedy on Sesame St. 883 25 (3.20)  2006-09-04
?Tribute to Wayne Static and Serj Tankian 1,266 19 (3.42)  2006-09-04
?Homer forgot Poland 606 35 (3.17)  2006-09-05
?How to REALLY impress samurai 14,451 459 (4.07)  2006-09-06
?Cyberman Raves 577 37 (3.59)  2006-09-08
?OMG secret Jewish textbook 3,176 101 (3.77)  2006-09-08
?Gandalf learns of the Senate immigration bill 842 15 (3.53)  2006-09-08
?lazyPod 2.0 (100% less out of tune) 1,057 46 (3.83)  2006-09-13
?Bazooka girl! 1,132 29 (3.83)  2006-09-13
?Mankind is Doomed (maybe) 11,285 398 (3.98)  2006-09-18
?J-pop Explained 2,251 148 (3.78)  2006-09-19
?Nelson draws futurama's existence 12,304 465 (3.95)  2006-09-20
?Max trying to tell us something? 546 20 (3.65)  2006-09-24
?Bazooka Girl 2.0 (in battle) 1,107 20 (3.95)  2006-09-24
?Need Directions?? 680 27 (3.89)  2006-10-28
?(nsfw) Playing with the wii (lol, pun) 22,615 422 (4.02)  2006-11-10
?Excelite and torn lions 2,197 46 (3.83)  2006-11-11
?Secret is Out, Alternate Ending 1,106 58 (3.78)  2006-11-30
?Nagin Addresses Congress (now with echo) 5,942 330 (4.20)  2007-01-07
?OMG Secret Sony Crop Circle 846 40 (3.73)  2007-01-11
?SEGA had ONE weakness... 1,890 69 (3.74)  2007-01-11
?Silly Boris 886 31 (3.84)  2007-01-15
?(nsfw) Nigga Betrayed the Law (undubbed version) 6,323 216 (4.05)  2007-01-22
?Hey bud... how would you like to buy... 994 42 (3.86)  2007-02-05
?300TMND: This is.. 935 45 (3.58)  2007-02-19
?(nsfw) Seriously... stop looking 7,817 301 (3.82)  2007-02-20
?New Mcdonalds Ad 395 12 (1.83)  2007-02-22
?Pardon me... 765 36 (3.67)  2007-04-08
?A superior tornado warning 17,563 529 (4.31)  2007-04-27
?PTKFGS: Liberty Guaranteed 5,295 101 (3.95)  2007-05-22
?Hillary's New Tax Proposal 6,111 119 (3.36)  2007-06-02
?Poland's distant relative 819 16 (3.19)  2007-08-22
?CramerTMND: Open the window 775 10 (3.90)  2007-08-24
?A superior HURRICANE warning 515 15 (3.53)  2007-08-24
?Ron Paul rEVOLution 2,943 29 (3.62)  2007-08-25
?Gandalf discovers a new talent 833 21 (3.52)  2007-08-26
?Tomorrow's weather calls for... WTF?! 636 17 (3.82)  2007-08-26
?When roflcat stops laughing... 478 13 (1.38)  2007-09-15
?I went to UF and all I got was tasered 936 15 (3.53)  2007-09-18
?Is America ready for a bat president? 11,259 347 (3.90)  2007-09-26
?A threat ignored 733 8 (2.00)  2007-10-21
?Hitler is not the magic word 2,162 16 (3.25)  2007-11-29
?Feature user is credit to team 566 19 (2.53)  2008-04-28
?McCain'd 1,013 34 (3.53)  2008-10-16
?Max's solution to featured users 486 10 (3.00)  2008-12-05
?It's the end of the Brak as we know it 449 8 (3.25)  2008-12-05
?Epic Max Maneuver 538 11 (2.82)  2008-12-07
?TOURNAMENTMND1: Guess what Chad 665 19 (2.79)  2008-12-08
?Greed Stares Into Your Soul 775 14 (3.21)  2008-12-11
?(nsfw) The Jap Fapper (press esc to fap) 2,687 18 (3.61)  2008-12-15
?TOURNAMENTMND2: Finish him! 647 17 (3.65)  2009-01-15